sensor_id;sensor_type;location;lat;lon;timestamp;P1;durP1;ratioP1;P2;durP2;ratioP2
80127;SDS011;69440;52.118;5.408;2023-05-09T00:01:34;40.05;;;18.40;;
80127;SDS011;69440;52.118;5.408;2023-05-09T00:04:01;37.88;;;16.45;;
80127;SDS011;69440;52.118;5.408;2023-05-09T00:06:28;35.42;;;16.75;;
80127;SDS011;69440;52.118;5.408;2023-05-09T00:08:54;41.25;;;16.73;;
80127;SDS011;69440;52.118;5.408;2023-05-09T00:11:21;37.97;;;17.35;;
80127;SDS011;69440;52.118;5.408;2023-05-09T00:13:47;38.30;;;18.23;;
80127;SDS011;69440;52.118;5.408;2023-05-09T00:16:15;42.35;;;19.42;;
80127;SDS011;69440;52.118;5.408;2023-05-09T00:18:43;39.45;;;16.67;;
80127;SDS011;69440;52.118;5.408;2023-05-09T00:21:10;41.85;;;17.40;;
80127;SDS011;69440;52.118;5.408;2023-05-09T00:23:36;41.58;;;19.23;;
80127;SDS011;69440;52.118;5.408;2023-05-09T00:26:03;39.88;;;19.00;;
80127;SDS011;69440;52.118;5.408;2023-05-09T00:28:29;41.97;;;19.40;;
80127;SDS011;69440;52.118;5.408;2023-05-09T00:30:56;37.15;;;17.08;;
80127;SDS011;69440;52.118;5.408;2023-05-09T00:33:22;36.55;;;16.38;;
80127;SDS011;69440;52.118;5.408;2023-05-09T00:35:52;40.28;;;18.40;;
80127;SDS011;69440;52.118;5.408;2023-05-09T00:38:19;35.03;;;16.70;;
80127;SDS011;69440;52.118;5.408;2023-05-09T00:40:46;41.17;;;18.73;;
80127;SDS011;69440;52.118;5.408;2023-05-09T00:43:12;40.03;;;17.40;;
80127;SDS011;69440;52.118;5.408;2023-05-09T00:45:38;36.95;;;16.42;;
80127;SDS011;69440;52.118;5.408;2023-05-09T00:48:05;41.13;;;18.08;;
80127;SDS011;69440;52.118;5.408;2023-05-09T00:50:32;40.55;;;17.52;;
80127;SDS011;69440;52.118;5.408;2023-05-09T00:52:58;39.97;;;16.92;;
80127;SDS011;69440;52.118;5.408;2023-05-09T00:55:25;40.45;;;17.13;;
80127;SDS011;69440;52.118;5.408;2023-05-09T00:57:52;42.03;;;17.58;;
80127;SDS011;69440;52.118;5.408;2023-05-09T01:00:18;42.10;;;18.50;;
80127;SDS011;69440;52.118;5.408;2023-05-09T01:02:46;40.60;;;18.42;;
80127;SDS011;69440;52.118;5.408;2023-05-09T01:05:15;38.95;;;17.65;;
80127;SDS011;69440;52.118;5.408;2023-05-09T01:10:33;41.80;;;18.55;;
80127;SDS011;69440;52.118;5.408;2023-05-09T01:13:09;38.40;;;18.52;;
80127;SDS011;69440;52.118;5.408;2023-05-09T01:15:43;39.90;;;17.75;;
80127;SDS011;69440;52.118;5.408;2023-05-09T01:18:24;40.35;;;17.52;;
80127;SDS011;69440;52.118;5.408;2023-05-09T01:20:56;36.22;;;15.45;;
80127;SDS011;69440;52.118;5.408;2023-05-09T01:26:18;39.58;;;16.80;;
80127;SDS011;69440;52.118;5.408;2023-05-09T01:31:55;42.55;;;18.55;;
80127;SDS011;69440;52.118;5.408;2023-05-09T01:34:25;44.92;;;18.38;;
80127;SDS011;69440;52.118;5.408;2023-05-09T01:36:54;44.80;;;19.20;;
80127;SDS011;69440;52.118;5.408;2023-05-09T01:39:24;39.92;;;17.17;;
80127;SDS011;69440;52.118;5.408;2023-05-09T01:41:54;43.10;;;19.73;;
80127;SDS011;69440;52.118;5.408;2023-05-09T01:44:22;41.83;;;17.88;;
80127;SDS011;69440;52.118;5.408;2023-05-09T01:46:51;44.17;;;20.10;;
80127;SDS011;69440;52.118;5.408;2023-05-09T01:49:19;45.08;;;19.40;;
80127;SDS011;69440;52.118;5.408;2023-05-09T01:51:48;44.25;;;18.45;;
80127;SDS011;69440;52.118;5.408;2023-05-09T01:54:15;46.35;;;19.27;;
80127;SDS011;69440;52.118;5.408;2023-05-09T01:56:43;47.20;;;20.38;;
80127;SDS011;69440;52.118;5.408;2023-05-09T01:59:11;48.20;;;19.83;;
80127;SDS011;69440;52.118;5.408;2023-05-09T02:01:42;48.55;;;19.17;;
80127;SDS011;69440;52.118;5.408;2023-05-09T02:04:09;44.63;;;18.67;;
80127;SDS011;69440;52.118;5.408;2023-05-09T02:06:37;46.78;;;19.88;;
80127;SDS011;69440;52.118;5.408;2023-05-09T02:09:05;46.67;;;19.02;;
80127;SDS011;69440;52.118;5.408;2023-05-09T02:11:32;47.83;;;19.00;;
80127;SDS011;69440;52.118;5.408;2023-05-09T02:13:58;46.13;;;20.45;;
80127;SDS011;69440;52.118;5.408;2023-05-09T02:16:24;43.85;;;20.38;;
80127;SDS011;69440;52.118;5.408;2023-05-09T02:18:51;42.97;;;18.75;;
80127;SDS011;69440;52.118;5.408;2023-05-09T02:21:18;43.33;;;17.92;;
80127;SDS011;69440;52.118;5.408;2023-05-09T02:23:44;43.20;;;19.40;;
80127;SDS011;69440;52.118;5.408;2023-05-09T02:26:11;40.40;;;18.40;;
80127;SDS011;69440;52.118;5.408;2023-05-09T02:28:38;50.97;;;20.45;;
80127;SDS011;69440;52.118;5.408;2023-05-09T02:31:08;47.00;;;20.17;;
80127;SDS011;69440;52.118;5.408;2023-05-09T02:33:37;46.33;;;19.90;;
80127;SDS011;69440;52.118;5.408;2023-05-09T02:36:06;49.45;;;21.20;;
80127;SDS011;69440;52.118;5.408;2023-05-09T02:38:34;45.63;;;20.60;;
80127;SDS011;69440;52.118;5.408;2023-05-09T02:41:01;45.92;;;18.65;;
80127;SDS011;69440;52.118;5.408;2023-05-09T02:43:28;46.25;;;19.33;;
80127;SDS011;69440;52.118;5.408;2023-05-09T02:45:54;44.72;;;20.13;;
80127;SDS011;69440;52.118;5.408;2023-05-09T02:48:20;50.38;;;19.48;;
80127;SDS011;69440;52.118;5.408;2023-05-09T02:50:47;44.63;;;19.35;;
80127;SDS011;69440;52.118;5.408;2023-05-09T02:53:14;47.78;;;20.58;;
80127;SDS011;69440;52.118;5.408;2023-05-09T02:55:40;47.00;;;20.15;;
80127;SDS011;69440;52.118;5.408;2023-05-09T02:58:07;47.80;;;19.17;;
80127;SDS011;69440;52.118;5.408;2023-05-09T03:00:40;46.65;;;20.80;;
80127;SDS011;69440;52.118;5.408;2023-05-09T03:03:07;45.50;;;19.27;;
80127;SDS011;69440;52.118;5.408;2023-05-09T03:05:34;54.00;;;21.80;;
80127;SDS011;69440;52.118;5.408;2023-05-09T03:08:00;50.35;;;20.40;;
80127;SDS011;69440;52.118;5.408;2023-05-09T03:10:26;44.10;;;20.27;;
80127;SDS011;69440;52.118;5.408;2023-05-09T03:12:53;43.97;;;18.25;;
80127;SDS011;69440;52.118;5.408;2023-05-09T03:15:19;44.28;;;20.20;;
80127;SDS011;69440;52.118;5.408;2023-05-09T03:17:46;43.72;;;19.67;;
80127;SDS011;69440;52.118;5.408;2023-05-09T03:20:13;44.10;;;18.40;;
80127;SDS011;69440;52.118;5.408;2023-05-09T03:22:40;46.55;;;20.27;;
80127;SDS011;69440;52.118;5.408;2023-05-09T03:25:07;43.13;;;20.35;;
80127;SDS011;69440;52.118;5.408;2023-05-09T03:27:34;42.45;;;18.05;;
80127;SDS011;69440;52.118;5.408;2023-05-09T03:30:01;45.75;;;19.08;;
80127;SDS011;69440;52.118;5.408;2023-05-09T03:32:27;37.90;;;17.27;;
80127;SDS011;69440;52.118;5.408;2023-05-09T03:34:54;42.45;;;20.00;;
80127;SDS011;69440;52.118;5.408;2023-05-09T03:37:20;44.25;;;18.38;;
80127;SDS011;69440;52.118;5.408;2023-05-09T03:39:47;42.70;;;18.65;;
80127;SDS011;69440;52.118;5.408;2023-05-09T03:42:13;42.25;;;17.85;;
80127;SDS011;69440;52.118;5.408;2023-05-09T03:44:40;44.35;;;18.67;;
80127;SDS011;69440;52.118;5.408;2023-05-09T03:47:06;39.65;;;18.85;;
80127;SDS011;69440;52.118;5.408;2023-05-09T03:49:33;43.70;;;19.60;;
80127;SDS011;69440;52.118;5.408;2023-05-09T03:51:59;47.03;;;19.13;;
80127;SDS011;69440;52.118;5.408;2023-05-09T03:54:26;49.00;;;19.33;;
80127;SDS011;69440;52.118;5.408;2023-05-09T03:56:52;46.80;;;20.48;;
80127;SDS011;69440;52.118;5.408;2023-05-09T03:59:18;40.83;;;18.45;;
80127;SDS011;69440;52.118;5.408;2023-05-09T04:01:45;44.22;;;19.50;;
80127;SDS011;69440;52.118;5.408;2023-05-09T04:04:12;43.50;;;17.67;;
80127;SDS011;69440;52.118;5.408;2023-05-09T04:06:38;41.22;;;18.05;;
80127;SDS011;69440;52.118;5.408;2023-05-09T04:09:05;42.28;;;20.20;;
80127;SDS011;69440;52.118;5.408;2023-05-09T04:11:32;41.00;;;17.42;;
80127;SDS011;69440;52.118;5.408;2023-05-09T04:13:58;40.75;;;17.77;;
80127;SDS011;69440;52.118;5.408;2023-05-09T04:16:24;41.53;;;17.20;;
80127;SDS011;69440;52.118;5.408;2023-05-09T04:18:51;35.67;;;17.83;;
80127;SDS011;69440;52.118;5.408;2023-05-09T04:21:17;37.35;;;17.33;;
80127;SDS011;69440;52.118;5.408;2023-05-09T04:23:44;38.47;;;18.60;;
80127;SDS011;69440;52.118;5.408;2023-05-09T04:26:10;37.20;;;17.73;;
80127;SDS011;69440;52.118;5.408;2023-05-09T04:28:37;35.67;;;16.23;;
80127;SDS011;69440;52.118;5.408;2023-05-09T04:31:04;36.30;;;17.10;;
80127;SDS011;69440;52.118;5.408;2023-05-09T04:33:31;40.00;;;17.95;;
80127;SDS011;69440;52.118;5.408;2023-05-09T04:35:58;34.20;;;16.13;;
80127;SDS011;69440;52.118;5.408;2023-05-09T04:38:24;33.63;;;15.80;;
80127;SDS011;69440;52.118;5.408;2023-05-09T04:40:51;36.17;;;16.65;;
80127;SDS011;69440;52.118;5.408;2023-05-09T04:43:17;34.63;;;16.40;;
80127;SDS011;69440;52.118;5.408;2023-05-09T04:45:44;32.65;;;15.00;;
80127;SDS011;69440;52.118;5.408;2023-05-09T04:48:11;35.70;;;16.70;;
80127;SDS011;69440;52.118;5.408;2023-05-09T04:50:37;32.05;;;14.65;;
80127;SDS011;69440;52.118;5.408;2023-05-09T04:53:04;32.85;;;15.43;;
80127;SDS011;69440;52.118;5.408;2023-05-09T04:55:31;31.52;;;15.48;;
80127;SDS011;69440;52.118;5.408;2023-05-09T04:57:57;31.95;;;16.17;;
80127;SDS011;69440;52.118;5.408;2023-05-09T05:00:23;27.85;;;12.95;;
80127;SDS011;69440;52.118;5.408;2023-05-09T05:02:50;30.67;;;15.00;;
80127;SDS011;69440;52.118;5.408;2023-05-09T05:05:17;26.10;;;13.10;;
80127;SDS011;69440;52.118;5.408;2023-05-09T05:07:50;28.27;;;14.65;;
80127;SDS011;69440;52.118;5.408;2023-05-09T05:10:18;29.63;;;14.10;;
80127;SDS011;69440;52.118;5.408;2023-05-09T05:12:44;24.48;;;12.65;;
80127;SDS011;69440;52.118;5.408;2023-05-09T05:15:11;23.92;;;13.65;;
80127;SDS011;69440;52.118;5.408;2023-05-09T05:17:38;28.35;;;14.00;;
80127;SDS011;69440;52.118;5.408;2023-05-09T05:20:05;28.63;;;14.57;;
80127;SDS011;69440;52.118;5.408;2023-05-09T05:22:32;26.15;;;13.38;;
80127;SDS011;69440;52.118;5.408;2023-05-09T05:24:58;20.73;;;12.60;;
80127;SDS011;69440;52.118;5.408;2023-05-09T05:27:24;25.55;;;13.55;;
80127;SDS011;69440;52.118;5.408;2023-05-09T05:29:51;24.38;;;11.93;;
80127;SDS011;69440;52.118;5.408;2023-05-09T05:32:17;24.73;;;12.25;;
80127;SDS011;69440;52.118;5.408;2023-05-09T05:34:44;24.70;;;12.40;;
80127;SDS011;69440;52.118;5.408;2023-05-09T05:37:10;28.58;;;13.07;;
80127;SDS011;69440;52.118;5.408;2023-05-09T05:39:37;23.30;;;12.90;;
80127;SDS011;69440;52.118;5.408;2023-05-09T05:42:03;24.95;;;10.82;;
80127;SDS011;69440;52.118;5.408;2023-05-09T05:44:29;19.35;;;11.95;;
80127;SDS011;69440;52.118;5.408;2023-05-09T05:46:56;21.10;;;11.50;;
80127;SDS011;69440;52.118;5.408;2023-05-09T05:49:22;21.33;;;11.13;;
80127;SDS011;69440;52.118;5.408;2023-05-09T05:51:50;22.65;;;11.57;;
80127;SDS011;69440;52.118;5.408;2023-05-09T05:54:16;20.20;;;11.43;;
80127;SDS011;69440;52.118;5.408;2023-05-09T05:56:43;21.05;;;12.23;;
80127;SDS011;69440;52.118;5.408;2023-05-09T05:59:09;19.92;;;10.80;;
80127;SDS011;69440;52.118;5.408;2023-05-09T06:01:38;18.70;;;10.45;;
80127;SDS011;69440;52.118;5.408;2023-05-09T06:04:05;19.70;;;11.35;;
80127;SDS011;69440;52.118;5.408;2023-05-09T06:06:31;19.48;;;10.27;;
80127;SDS011;69440;52.118;5.408;2023-05-09T06:08:58;19.33;;;10.73;;
80127;SDS011;69440;52.118;5.408;2023-05-09T06:11:24;17.00;;;10.32;;
80127;SDS011;69440;52.118;5.408;2023-05-09T06:13:51;19.80;;;10.07;;
80127;SDS011;69440;52.118;5.408;2023-05-09T06:16:17;19.48;;;10.45;;
80127;SDS011;69440;52.118;5.408;2023-05-09T06:18:46;18.10;;;10.20;;
80127;SDS011;69440;52.118;5.408;2023-05-09T06:21:12;20.80;;;11.15;;
80127;SDS011;69440;52.118;5.408;2023-05-09T06:23:39;21.95;;;10.88;;
80127;SDS011;69440;52.118;5.408;2023-05-09T06:26:22;21.10;;;11.05;;
80127;SDS011;69440;52.118;5.408;2023-05-09T06:28:48;17.67;;;11.52;;
80127;SDS011;69440;52.118;5.408;2023-05-09T06:31:15;20.33;;;10.95;;
80127;SDS011;69440;52.118;5.408;2023-05-09T06:33:42;23.70;;;13.18;;
80127;SDS011;69440;52.118;5.408;2023-05-09T06:36:08;20.13;;;11.27;;
80127;SDS011;69440;52.118;5.408;2023-05-09T06:38:34;19.60;;;11.02;;
80127;SDS011;69440;52.118;5.408;2023-05-09T06:41:01;19.02;;;10.27;;
80127;SDS011;69440;52.118;5.408;2023-05-09T06:43:27;21.42;;;11.73;;
80127;SDS011;69440;52.118;5.408;2023-05-09T06:45:54;19.63;;;11.85;;
80127;SDS011;69440;52.118;5.408;2023-05-09T06:48:20;22.13;;;11.82;;
80127;SDS011;69440;52.118;5.408;2023-05-09T06:50:49;17.35;;;10.90;;
80127;SDS011;69440;52.118;5.408;2023-05-09T06:53:15;19.67;;;11.10;;
80127;SDS011;69440;52.118;5.408;2023-05-09T06:55:43;21.75;;;11.80;;
80127;SDS011;69440;52.118;5.408;2023-05-09T06:58:09;19.75;;;11.25;;
80127;SDS011;69440;52.118;5.408;2023-05-09T07:00:37;21.92;;;11.40;;
80127;SDS011;69440;52.118;5.408;2023-05-09T07:03:04;22.25;;;11.85;;
80127;SDS011;69440;52.118;5.408;2023-05-09T07:05:32;20.35;;;11.73;;
80127;SDS011;69440;52.118;5.408;2023-05-09T07:07:59;20.20;;;11.40;;
80127;SDS011;69440;52.118;5.408;2023-05-09T07:10:25;18.95;;;11.48;;
80127;SDS011;69440;52.118;5.408;2023-05-09T07:12:52;19.65;;;10.73;;
80127;SDS011;69440;52.118;5.408;2023-05-09T07:15:18;17.45;;;11.02;;
80127;SDS011;69440;52.118;5.408;2023-05-09T07:18:02;22.67;;;12.30;;
80127;SDS011;69440;52.118;5.408;2023-05-09T07:20:28;17.98;;;10.57;;
80127;SDS011;69440;52.118;5.408;2023-05-09T07:22:55;20.77;;;10.68;;
80127;SDS011;69440;52.118;5.408;2023-05-09T07:25:23;19.45;;;10.25;;
80127;SDS011;69440;52.118;5.408;2023-05-09T07:27:50;23.10;;;11.60;;
80127;SDS011;69440;52.118;5.408;2023-05-09T07:30:16;21.02;;;10.98;;
80127;SDS011;69440;52.118;5.408;2023-05-09T07:32:43;20.27;;;11.68;;
80127;SDS011;69440;52.118;5.408;2023-05-09T07:35:09;19.92;;;10.90;;
80127;SDS011;69440;52.118;5.408;2023-05-09T07:37:36;19.95;;;11.82;;
80127;SDS011;69440;52.118;5.408;2023-05-09T07:40:02;17.83;;;10.90;;
80127;SDS011;69440;52.118;5.408;2023-05-09T07:42:31;20.27;;;11.38;;
80127;SDS011;69440;52.118;5.408;2023-05-09T07:44:58;19.05;;;12.30;;
80127;SDS011;69440;52.118;5.408;2023-05-09T07:47:25;18.52;;;10.50;;
80127;SDS011;69440;52.118;5.408;2023-05-09T07:49:52;20.85;;;11.27;;
80127;SDS011;69440;52.118;5.408;2023-05-09T07:52:18;18.45;;;10.80;;
80127;SDS011;69440;52.118;5.408;2023-05-09T07:54:44;18.95;;;11.15;;
80127;SDS011;69440;52.118;5.408;2023-05-09T07:57:11;19.38;;;11.52;;
80127;SDS011;69440;52.118;5.408;2023-05-09T07:59:37;17.17;;;10.55;;
80127;SDS011;69440;52.118;5.408;2023-05-09T08:02:04;15.90;;;10.38;;
80127;SDS011;69440;52.118;5.408;2023-05-09T08:04:30;18.75;;;10.48;;
80127;SDS011;69440;52.118;5.408;2023-05-09T08:06:57;15.90;;;10.35;;
80127;SDS011;69440;52.118;5.408;2023-05-09T08:09:24;16.55;;;10.55;;
80127;SDS011;69440;52.118;5.408;2023-05-09T08:11:51;17.23;;;10.10;;
80127;SDS011;69440;52.118;5.408;2023-05-09T08:14:18;17.83;;;10.43;;
80127;SDS011;69440;52.118;5.408;2023-05-09T08:16:44;18.33;;;11.27;;
80127;SDS011;69440;52.118;5.408;2023-05-09T08:19:11;16.35;;;9.52;;
80127;SDS011;69440;52.118;5.408;2023-05-09T08:21:37;16.77;;;9.88;;
80127;SDS011;69440;52.118;5.408;2023-05-09T08:24:03;16.95;;;9.65;;
80127;SDS011;69440;52.118;5.408;2023-05-09T08:26:33;17.20;;;10.45;;
80127;SDS011;69440;52.118;5.408;2023-05-09T08:29:00;16.65;;;10.25;;
80127;SDS011;69440;52.118;5.408;2023-05-09T08:31:26;14.50;;;9.55;;
80127;SDS011;69440;52.118;5.408;2023-05-09T08:33:53;16.67;;;9.85;;
80127;SDS011;69440;52.118;5.408;2023-05-09T08:36:19;14.20;;;9.90;;
80127;SDS011;69440;52.118;5.408;2023-05-09T08:38:46;15.65;;;9.68;;
80127;SDS011;69440;52.118;5.408;2023-05-09T08:41:12;11.85;;;8.18;;
80127;SDS011;69440;52.118;5.408;2023-05-09T08:43:39;16.20;;;9.52;;
80127;SDS011;69440;52.118;5.408;2023-05-09T08:46:07;15.48;;;8.43;;
80127;SDS011;69440;52.118;5.408;2023-05-09T08:48:35;11.38;;;8.00;;
80127;SDS011;69440;52.118;5.408;2023-05-09T08:51:03;11.73;;;8.40;;
80127;SDS011;69440;52.118;5.408;2023-05-09T08:53:31;11.82;;;7.88;;
80127;SDS011;69440;52.118;5.408;2023-05-09T08:55:58;10.15;;;6.80;;
80127;SDS011;69440;52.118;5.408;2023-05-09T08:58:28;12.00;;;7.18;;
80127;SDS011;69440;52.118;5.408;2023-05-09T09:00:56;10.38;;;6.50;;
80127;SDS011;69440;52.118;5.408;2023-05-09T09:03:24;13.27;;;6.70;;
80127;SDS011;69440;52.118;5.408;2023-05-09T09:05:51;11.18;;;7.95;;
80127;SDS011;69440;52.118;5.408;2023-05-09T09:08:20;10.77;;;7.00;;
80127;SDS011;69440;52.118;5.408;2023-05-09T09:10:48;9.80;;;7.05;;
80127;SDS011;69440;52.118;5.408;2023-05-09T09:13:15;11.45;;;7.30;;
80127;SDS011;69440;52.118;5.408;2023-05-09T09:15:43;13.13;;;7.97;;
80127;SDS011;69440;52.118;5.408;2023-05-09T09:18:11;11.20;;;7.30;;
80127;SDS011;69440;52.118;5.408;2023-05-09T09:23:18;10.98;;;6.75;;
80127;SDS011;69440;52.118;5.408;2023-05-09T09:25:56;9.95;;;6.88;;
80127;SDS011;69440;52.118;5.408;2023-05-09T09:28:27;9.48;;;6.18;;
80127;SDS011;69440;52.118;5.408;2023-05-09T09:30:53;10.02;;;6.70;;
80127;SDS011;69440;52.118;5.408;2023-05-09T09:33:24;8.07;;;5.57;;
80127;SDS011;69440;52.118;5.408;2023-05-09T09:35:54;10.23;;;6.07;;
80127;SDS011;69440;52.118;5.408;2023-05-09T09:38:22;8.05;;;5.47;;
80127;SDS011;69440;52.118;5.408;2023-05-09T09:40:55;9.77;;;6.55;;
80127;SDS011;69440;52.118;5.408;2023-05-09T09:43:26;8.10;;;5.63;;
80127;SDS011;69440;52.118;5.408;2023-05-09T09:45:54;10.18;;;6.63;;
80127;SDS011;69440;52.118;5.408;2023-05-09T09:48:25;8.38;;;6.22;;
80127;SDS011;69440;52.118;5.408;2023-05-09T09:50:53;8.43;;;6.10;;
80127;SDS011;69440;52.118;5.408;2023-05-09T09:53:21;9.95;;;6.63;;
80127;SDS011;69440;52.118;5.408;2023-05-09T09:55:49;10.77;;;6.43;;
80127;SDS011;69440;52.118;5.408;2023-05-09T09:58:17;8.13;;;5.45;;
80127;SDS011;69440;52.118;5.408;2023-05-09T10:00:46;7.63;;;5.95;;
80127;SDS011;69440;52.118;5.408;2023-05-09T10:03:36;7.45;;;5.13;;
80127;SDS011;69440;52.118;5.408;2023-05-09T10:06:13;9.55;;;5.82;;
80127;SDS011;69440;52.118;5.408;2023-05-09T10:08:42;8.25;;;5.28;;
80127;SDS011;69440;52.118;5.408;2023-05-09T10:11:09;7.68;;;5.95;;
80127;SDS011;69440;52.118;5.408;2023-05-09T10:13:36;8.45;;;5.97;;
80127;SDS011;69440;52.118;5.408;2023-05-09T10:16:04;8.45;;;5.63;;
80127;SDS011;69440;52.118;5.408;2023-05-09T10:18:31;7.93;;;6.03;;
80127;SDS011;69440;52.118;5.408;2023-05-09T10:20:59;8.02;;;6.15;;
80127;SDS011;69440;52.118;5.408;2023-05-09T10:23:30;8.85;;;6.10;;
80127;SDS011;69440;52.118;5.408;2023-05-09T10:26:04;10.30;;;6.63;;
80127;SDS011;69440;52.118;5.408;2023-05-09T10:31:13;10.75;;;6.15;;
80127;SDS011;69440;52.118;5.408;2023-05-09T10:33:47;11.50;;;5.45;;
80127;SDS011;69440;52.118;5.408;2023-05-09T10:36:15;10.70;;;6.50;;
80127;SDS011;69440;52.118;5.408;2023-05-09T10:38:43;8.68;;;6.22;;
80127;SDS011;69440;52.118;5.408;2023-05-09T10:41:10;8.30;;;5.90;;
80127;SDS011;69440;52.118;5.408;2023-05-09T10:43:38;8.85;;;5.97;;
80127;SDS011;69440;52.118;5.408;2023-05-09T10:46:05;10.45;;;6.88;;
80127;SDS011;69440;52.118;5.408;2023-05-09T10:48:32;9.95;;;7.00;;
80127;SDS011;69440;52.118;5.408;2023-05-09T10:50:59;10.73;;;6.18;;
80127;SDS011;69440;52.118;5.408;2023-05-09T10:53:40;10.10;;;6.50;;
80127;SDS011;69440;52.118;5.408;2023-05-09T10:56:21;9.05;;;6.25;;
80127;SDS011;69440;52.118;5.408;2023-05-09T10:58:48;8.65;;;5.93;;
80127;SDS011;69440;52.118;5.408;2023-05-09T11:01:15;11.68;;;7.15;;
80127;SDS011;69440;52.118;5.408;2023-05-09T11:03:55;9.20;;;7.15;;
80127;SDS011;69440;52.118;5.408;2023-05-09T11:17:03;9.85;;;6.43;;
80127;SDS011;69440;52.118;5.408;2023-05-09T11:22:23;8.13;;;5.57;;
80127;SDS011;69440;52.118;5.408;2023-05-09T11:25:09;11.60;;;5.00;;
80127;SDS011;69440;52.118;5.408;2023-05-09T11:27:42;9.15;;;5.70;;
80127;SDS011;69440;52.118;5.408;2023-05-09T11:35:18;9.85;;;5.63;;
80127;SDS011;69440;52.118;5.408;2023-05-09T11:40:18;7.43;;;5.28;;
80127;SDS011;69440;52.118;5.408;2023-05-09T11:42:47;8.20;;;5.65;;
80127;SDS011;69440;52.118;5.408;2023-05-09T11:45:15;10.20;;;6.32;;
80127;SDS011;69440;52.118;5.408;2023-05-09T11:47:42;8.48;;;6.03;;
80127;SDS011;69440;52.118;5.408;2023-05-09T11:50:11;8.27;;;6.32;;
80127;SDS011;69440;52.118;5.408;2023-05-09T11:52:38;10.43;;;6.35;;
80127;SDS011;69440;52.118;5.408;2023-05-09T11:55:07;7.93;;;5.82;;
80127;SDS011;69440;52.118;5.408;2023-05-09T11:57:39;8.50;;;6.03;;
80127;SDS011;69440;52.118;5.408;2023-05-09T12:00:06;8.95;;;5.80;;
80127;SDS011;69440;52.118;5.408;2023-05-09T12:02:35;7.68;;;5.63;;
80127;SDS011;69440;52.118;5.408;2023-05-09T12:05:09;6.93;;;4.60;;
80127;SDS011;69440;52.118;5.408;2023-05-09T12:07:38;8.80;;;5.97;;
80127;SDS011;69440;52.118;5.408;2023-05-09T12:10:06;8.43;;;5.80;;
80127;SDS011;69440;52.118;5.408;2023-05-09T12:12:33;8.02;;;6.00;;
80127;SDS011;69440;52.118;5.408;2023-05-09T12:15:01;9.55;;;5.93;;
80127;SDS011;69440;52.118;5.408;2023-05-09T12:17:29;8.98;;;5.93;;
80127;SDS011;69440;52.118;5.408;2023-05-09T12:19:57;10.02;;;6.70;;
80127;SDS011;69440;52.118;5.408;2023-05-09T12:22:25;11.30;;;6.38;;
80127;SDS011;69440;52.118;5.408;2023-05-09T12:24:52;9.25;;;6.88;;
80127;SDS011;69440;52.118;5.408;2023-05-09T12:27:19;9.30;;;7.00;;
80127;SDS011;69440;52.118;5.408;2023-05-09T12:29:46;6.85;;;5.22;;
80127;SDS011;69440;52.118;5.408;2023-05-09T12:32:13;7.60;;;5.97;;
80127;SDS011;69440;52.118;5.408;2023-05-09T12:34:41;7.55;;;5.45;;
80127;SDS011;69440;52.118;5.408;2023-05-09T12:37:14;7.35;;;5.60;;
80127;SDS011;69440;52.118;5.408;2023-05-09T12:40:01;7.35;;;5.03;;
80127;SDS011;69440;52.118;5.408;2023-05-09T12:42:34;8.85;;;6.25;;
80127;SDS011;69440;52.118;5.408;2023-05-09T12:45:03;9.98;;;6.70;;
80127;SDS011;69440;52.118;5.408;2023-05-09T12:47:33;8.27;;;5.88;;
80127;SDS011;69440;52.118;5.408;2023-05-09T12:50:03;8.70;;;6.35;;
80127;SDS011;69440;52.118;5.408;2023-05-09T12:55:12;6.95;;;5.80;;
80127;SDS011;69440;52.118;5.408;2023-05-09T12:57:39;8.15;;;5.97;;
80127;SDS011;69440;52.118;5.408;2023-05-09T13:00:07;8.05;;;6.65;;
80127;SDS011;69440;52.118;5.408;2023-05-09T13:02:38;11.80;;;6.75;;
80127;SDS011;69440;52.118;5.408;2023-05-09T13:07:40;11.60;;;6.40;;
80127;SDS011;69440;52.118;5.408;2023-05-09T13:10:12;8.07;;;6.40;;
80127;SDS011;69440;52.118;5.408;2023-05-09T13:12:39;8.55;;;6.60;;
80127;SDS011;69440;52.118;5.408;2023-05-09T13:15:10;7.72;;;5.45;;
80127;SDS011;69440;52.118;5.408;2023-05-09T13:17:37;9.13;;;6.22;;
80127;SDS011;69440;52.118;5.408;2023-05-09T13:20:04;6.97;;;5.80;;
80127;SDS011;69440;52.118;5.408;2023-05-09T13:22:31;7.78;;;5.63;;
80127;SDS011;69440;52.118;5.408;2023-05-09T13:24:57;8.27;;;6.40;;
80127;SDS011;69440;52.118;5.408;2023-05-09T13:27:24;8.18;;;6.68;;
80127;SDS011;69440;52.118;5.408;2023-05-09T13:29:50;6.63;;;5.05;;
80127;SDS011;69440;52.118;5.408;2023-05-09T13:32:17;7.63;;;5.93;;
80127;SDS011;69440;52.118;5.408;2023-05-09T13:34:43;8.80;;;5.93;;
80127;SDS011;69440;52.118;5.408;2023-05-09T13:37:11;5.72;;;4.20;;
80127;SDS011;69440;52.118;5.408;2023-05-09T13:39:37;8.75;;;5.07;;
80127;SDS011;69440;52.118;5.408;2023-05-09T13:42:03;7.43;;;4.75;;
80127;SDS011;69440;52.118;5.408;2023-05-09T13:44:30;6.63;;;4.18;;
80127;SDS011;69440;52.118;5.408;2023-05-09T13:46:56;6.47;;;4.47;;
80127;SDS011;69440;52.118;5.408;2023-05-09T13:49:25;5.28;;;4.70;;
80127;SDS011;69440;52.118;5.408;2023-05-09T13:51:53;5.60;;;4.15;;
80127;SDS011;69440;52.118;5.408;2023-05-09T13:54:19;5.72;;;4.38;;
80127;SDS011;69440;52.118;5.408;2023-05-09T13:56:48;5.65;;;4.30;;
80127;SDS011;69440;52.118;5.408;2023-05-09T13:59:16;6.18;;;4.13;;
80127;SDS011;69440;52.118;5.408;2023-05-09T14:01:42;7.05;;;4.93;;
80127;SDS011;69440;52.118;5.408;2023-05-09T14:04:09;5.07;;;4.13;;
80127;SDS011;69440;52.118;5.408;2023-05-09T14:06:35;5.88;;;4.90;;
80127;SDS011;69440;52.118;5.408;2023-05-09T14:09:02;5.80;;;4.13;;
80127;SDS011;69440;52.118;5.408;2023-05-09T14:11:31;6.75;;;4.90;;
80127;SDS011;69440;52.118;5.408;2023-05-09T14:13:58;7.45;;;5.63;;
80127;SDS011;69440;52.118;5.408;2023-05-09T14:16:25;6.30;;;5.25;;
80127;SDS011;69440;52.118;5.408;2023-05-09T14:18:51;6.13;;;4.20;;
80127;SDS011;69440;52.118;5.408;2023-05-09T14:21:18;6.22;;;4.70;;
80127;SDS011;69440;52.118;5.408;2023-05-09T14:23:44;6.18;;;4.93;;
80127;SDS011;69440;52.118;5.408;2023-05-09T14:26:12;6.10;;;4.82;;
80127;SDS011;69440;52.118;5.408;2023-05-09T14:28:38;5.95;;;4.90;;
80127;SDS011;69440;52.118;5.408;2023-05-09T14:31:05;4.65;;;3.55;;
80127;SDS011;69440;52.118;5.408;2023-05-09T14:33:33;5.03;;;4.15;;
80127;SDS011;69440;52.118;5.408;2023-05-09T14:36:01;7.53;;;4.72;;
80127;SDS011;69440;52.118;5.408;2023-05-09T14:38:28;4.90;;;3.65;;
80127;SDS011;69440;52.118;5.408;2023-05-09T14:40:54;5.18;;;3.70;;
80127;SDS011;69440;52.118;5.408;2023-05-09T14:43:21;5.63;;;3.80;;
80127;SDS011;69440;52.118;5.408;2023-05-09T14:45:49;5.00;;;3.83;;
80127;SDS011;69440;52.118;5.408;2023-05-09T14:48:16;4.75;;;4.22;;
80127;SDS011;69440;52.118;5.408;2023-05-09T14:50:43;5.03;;;3.58;;
80127;SDS011;69440;52.118;5.408;2023-05-09T14:53:09;4.88;;;3.75;;
80127;SDS011;69440;52.118;5.408;2023-05-09T14:55:36;4.75;;;3.65;;
80127;SDS011;69440;52.118;5.408;2023-05-09T14:58:02;4.97;;;3.30;;
80127;SDS011;69440;52.118;5.408;2023-05-09T15:00:29;5.13;;;3.75;;
80127;SDS011;69440;52.118;5.408;2023-05-09T15:02:55;5.38;;;4.03;;
80127;SDS011;69440;52.118;5.408;2023-05-09T15:05:22;4.82;;;3.70;;
80127;SDS011;69440;52.118;5.408;2023-05-09T15:07:49;6.80;;;3.40;;
80127;SDS011;69440;52.118;5.408;2023-05-09T15:10:15;4.47;;;3.75;;
80127;SDS011;69440;52.118;5.408;2023-05-09T15:12:42;4.57;;;3.50;;
80127;SDS011;69440;52.118;5.408;2023-05-09T15:17:39;5.07;;;3.90;;